Time;durP1;ratioP1;P1;durP2;ratioP2;P2;SDS_P1;SDS_P2;PMS_P1;PMS_P2;Temp;Humidity;BMP_temperature;BMP_pressure;BME280_temperature;BME280_humidity;BME280_pressure;Samples;Min_cycle;Max_cycle;Signal;HPM_P1;HPM_P2
2020/12/10 00:00:17;;;;;;;33.75;18.63;;;;;;;0.23;67.94;100025.53;5031354;28;20045;-70
2020/12/10 00:02:44;;;;;;;33.90;15.52;;;;;;;0.22;68.02;100029.00;5037493;28;20092;-71
2020/12/10 00:05:12;;;;;;;17.13;9.35;;;;;;;0.22;68.02;100026.41;5050341;28;20111;-71
2020/12/10 00:07:39;;;;;;;20.27;9.82;;;;;;;0.19;68.01;100028.97;5034379;28;20497;-71
2020/12/10 00:10:07;;;;;;;37.35;16.55;;;;;;;0.21;68.07;100036.72;5031136;28;20049;-70
2020/12/10 00:12:33;;;;;;;32.08;15.80;;;;;;;0.26;67.71;100027.25;5035716;28;20055;-71
2020/12/10 00:14:59;;;;;;;31.50;15.75;;;;;;;0.26;67.75;100025.53;5050514;28;20216;-70
2020/12/10 00:17:27;;;;;;;36.13;14.63;;;;;;;0.22;67.59;100023.81;5035708;28;20132;-70
2020/12/10 00:19:54;;;;;;;33.03;16.20;;;;;;;0.17;67.59;100019.50;5033439;28;20084;-71
2020/12/10 00:22:22;;;;;;;25.63;11.43;;;;;;;0.14;67.61;100024.66;5037899;28;20102;-70
2020/12/10 00:24:49;;;;;;;22.92;12.27;;;;;;;0.09;67.82;100016.09;5054403;28;20049;-70
2020/12/10 00:27:17;;;;;;;31.23;14.98;;;;;;;0.04;67.66;100030.69;5041289;28;20046;-70
2020/12/10 00:29:45;;;;;;;33.33;16.80;;;;;;;0.02;67.61;100025.53;5035006;28;20107;-70
2020/12/10 00:32:12;;;;;;;24.20;11.60;;;;;;;0.03;67.51;100011.78;5036590;28;20466;-69
2020/12/10 00:34:38;;;;;;;35.92;14.80;;;;;;;0.05;67.69;100020.38;5054136;28;20081;-70
2020/12/10 00:37:06;;;;;;;28.58;12.75;;;;;;;0.09;67.76;100024.69;5043035;28;20049;-71
2020/12/10 00:39:34;;;;;;;31.20;14.32;;;;;;;0.09;67.59;100016.09;5034478;28;20404;-70
2020/12/10 00:42:00;;;;;;;33.65;15.85;;;;;;;0.08;67.39;100012.66;5035228;28;20053;-70
2020/12/10 00:44:27;;;;;;;34.10;15.85;;;;;;;0.11;67.54;100010.06;5053786;28;20045;-70
2020/12/10 00:46:53;;;;;;;34.85;17.73;;;;;;;0.12;67.63;100014.38;5044663;28;20050;-70
2020/12/10 00:49:21;;;;;;;36.70;18.77;;;;;;;0.16;67.25;100003.19;5033815;28;20053;-70
2020/12/10 00:51:47;;;;;;;34.60;16.45;;;;;;;0.14;67.34;100004.91;5033575;28;20520;-71
2020/12/10 00:54:13;;;;;;;25.73;12.63;;;;;;;0.12;67.35;100001.47;5053666;28;20045;-70
2020/12/10 00:56:41;;;;;;;36.42;17.00;;;;;;;0.13;67.38;99990.31;5046281;28;20088;-70
2020/12/10 00:59:07;;;;;;;34.25;17.40;;;;;;;0.19;67.33;99982.56;5033676;28;20046;-70
2020/12/10 01:01:33;;;;;;;38.03;16.15;;;;;;;0.16;67.16;99985.13;5033570;28;20069;-70
2020/12/10 01:04:00;;;;;;;32.70;15.18;;;;;;;0.15;67.24;99991.16;5050678;28;20144;-69
2020/12/10 01:06:26;;;;;;;28.00;13.15;;;;;;;0.13;66.79;99971.41;5048147;28;20483;-71
2020/12/10 01:08:52;;;;;;;36.83;17.63;;;;;;;0.07;66.84;99963.69;5033760;28;20065;-71
2020/12/10 01:11:25;;;;;;;37.42;14.80;;;;;;;0.04;66.80;99964.53;5033426;28;20445;-71
2020/12/10 01:13:53;;;;;;;32.85;15.05;;;;;;;0.01;66.80;99967.13;5049938;28;20053;-71
2020/12/10 01:16:19;;;;;;;31.33;14.48;;;;;;;0.04;67.16;99961.97;5048774;28;20057;-71
2020/12/10 01:18:45;;;;;;;37.60;17.13;;;;;;;0.05;66.98;99958.53;5033633;28;20081;-70
2020/12/10 01:21:11;;;;;;;27.85;13.82;;;;;;;0.09;66.81;99956.81;5033301;28;20474;-71
2020/12/10 01:23:37;;;;;;;33.33;16.45;;;;;;;0.10;66.86;99958.53;5047480;28;20419;-70
2020/12/10 01:26:03;;;;;;;30.85;14.13;;;;;;;0.08;66.69;99955.94;5050561;28;20080;-70
2020/12/10 01:28:30;;;;;;;27.77;14.10;;;;;;;0.04;66.80;99951.66;5033397;28;20132;-70
2020/12/10 01:30:57;;;;;;;37.05;16.67;;;;;;;0.01;66.89;99943.06;5032089;28;20092;-71
2020/12/10 01:33:23;;;;;;;29.45;13.07;;;;;;;0.02;66.77;99952.53;5045154;28;20056;-72
2020/12/10 01:35:49;;;;;;;33.78;15.90;;;;;;;0.03;66.74;99955.09;5052458;28;20077;-70
2020/12/10 01:38:15;;;;;;;31.00;16.02;;;;;;;0.02;66.78;99952.53;5033317;28;20112;-70
2020/12/10 01:40:49;;;;;;;43.10;18.38;;;;;;;0.02;66.78;99948.22;5032607;28;20073;-71
2020/12/10 01:43:15;;;;;;;43.45;17.58;;;;;;;0.05;66.67;99960.25;5044049;28;20515;-70
2020/12/10 01:45:44;;;;;;;36.08;15.77;;;;;;;0.05;66.64;99952.50;5052581;28;20564;-71
2020/12/10 01:48:11;;;;;;;29.17;14.45;;;;;;;0.05;66.74;99955.94;5032930;28;20429;-70
2020/12/10 01:50:37;;;;;;;34.20;12.18;;;;;;;0.01;67.13;99958.53;5032221;28;20152;-70
2020/12/10 01:53:04;;;;;;;26.35;12.90;;;;;;;-0.02;67.04;99951.63;5042169;28;20124;-71
2020/12/10 01:55:30;;;;;;;25.27;11.95;;;;;;;-0.05;67.13;99951.66;5052529;28;20130;-70
2020/12/10 01:57:57;;;;;;;25.33;12.77;;;;;;;-0.10;67.12;99964.53;5034805;28;20085;-70
2020/12/10 02:00:23;;;;;;;24.23;11.02;;;;;;;-0.14;67.58;99949.09;5033051;28;20052;-70
2020/12/10 02:02:55;;;;;;;25.02;12.15;;;;;;;-0.16;67.51;99941.34;5039179;28;20068;-69
2020/12/10 02:05:22;;;;;;;29.83;13.68;;;;;;;-0.12;67.39;99945.63;5052269;28;20257;-70
2020/12/10 02:07:48;;;;;;;27.35;12.93;;;;;;;-0.11;67.40;99943.94;5035788;28;20041;-70
2020/12/10 02:10:15;;;;;;;27.33;12.05;;;;;;;-0.12;67.50;99937.06;5032831;28;20149;-70
2020/12/10 02:12:41;;;;;;;27.50;12.70;;;;;;;-0.15;67.61;99930.19;5037838;28;20053;-70
2020/12/10 02:15:07;;;;;;;24.02;12.80;;;;;;;-0.14;67.53;99928.47;5052445;28;20295;-70
2020/12/10 02:17:34;;;;;;;20.58;10.40;;;;;;;-0.16;67.72;99930.19;5037234;28;20552;-70
2020/12/10 02:20:00;;;;;;;23.33;11.23;;;;;;;-0.18;67.75;99919.03;5032728;28;20099;-70
2020/12/10 02:22:27;;;;;;;35.90;16.85;;;;;;;-0.22;67.88;99918.16;5035854;28;20473;-71
2020/12/10 02:24:54;;;;;;;32.60;17.10;;;;;;;-0.25;67.97;99917.28;5052105;28;20128;-70
2020/12/10 02:27:20;;;;;;;33.05;16.25;;;;;;;-0.28;67.83;99917.28;5038791;28;20068;-70
2020/12/10 02:29:46;;;;;;;25.50;9.77;;;;;;;-0.36;68.14;99913.00;5032620;28;20077;-70
2020/12/10 02:32:12;;;;;;;33.75;14.50;;;;;;;-0.40;68.42;99916.44;5034399;28;20136;-71
2020/12/10 02:34:39;;;;;;;28.98;13.80;;;;;;;-0.44;68.28;99919.84;5051337;28;20096;-71
2020/12/10 02:37:05;;;;;;;17.95;9.40;;;;;;;-0.45;68.54;99918.13;5041192;28;20083;-71
2020/12/10 02:39:31;;;;;;;34.13;16.45;;;;;;;-0.48;68.62;99914.72;5031935;28;20136;-71
2020/12/10 02:41:58;;;;;;;25.30;11.93;;;;;;;-0.49;68.72;99908.69;5032143;28;20286;-70
2020/12/10 02:44:24;;;;;;;20.15;10.30;;;;;;;-0.54;68.65;99905.28;5050166;28;20128;-70
2020/12/10 02:46:50;;;;;;;26.38;12.93;;;;;;;-0.53;68.65;99899.25;5042923;28;20081;-70
2020/12/10 02:49:17;;;;;;;25.73;12.13;;;;;;;-0.49;68.41;99900.97;5032039;28;20111;-70
2020/12/10 02:51:43;;;;;;;22.80;9.93;;;;;;;-0.46;68.59;99887.25;5031209;28;20045;-70
2020/12/10 02:54:09;;;;;;;29.30;14.00;;;;;;;-0.45;68.57;99892.38;5049324;28;20052;-70
2020/12/10 02:56:35;;;;;;;24.85;12.20;;;;;;;-0.44;68.72;99893.25;5044724;28;20076;-70
2020/12/10 02:59:03;;;;;;;24.17;10.55;;;;;;;-0.47;68.77;99885.53;5032026;28;20128;-70
2020/12/10 03:01:29;;;;;;;21.45;10.25;;;;;;;-0.46;68.67;99882.94;5031428;28;20072;-70
2020/12/10 03:03:55;;;;;;;29.05;13.18;;;;;;;-0.48;69.01;99887.25;5047502;28;20087;-70
2020/12/10 03:06:21;;;;;;;34.08;13.50;;;;;;;-0.51;69.18;99888.97;5046136;28;20049;-70
2020/12/10 03:08:47;;;;;;;31.17;12.73;;;;;;;-0.53;69.25;99885.53;5031623;28;20115;-70
2020/12/10 03:11:13;;;;;;;20.67;8.48;;;;;;;-0.55;69.39;99882.97;5031139;28;20134;-70
2020/12/10 03:13:39;;;;;;;26.02;12.32;;;;;;;-0.57;69.43;99882.09;5045658;28;20083;-70
2020/12/10 03:16:06;;;;;;;22.88;10.48;;;;;;;-0.54;69.44;99879.53;5047795;28;20091;-70
2020/12/10 03:18:32;;;;;;;13.50;6.55;;;;;;;-0.53;69.48;99878.66;5031528;28;20128;-70
2020/12/10 03:20:59;;;;;;;18.10;8.20;;;;;;;-0.54;69.68;99865.78;5031445;28;20049;-71
2020/12/10 03:23:25;;;;;;;25.83;12.13;;;;;;;-0.57;69.71;99871.81;5043601;28;20135;-71
2020/12/10 03:25:51;;;;;;;26.35;12.85;;;;;;;-0.54;70.00;99868.38;5049606;28;20080;-71
2020/12/10 03:28:17;;;;;;;27.33;11.07;;;;;;;-0.52;69.75;99866.66;5031252;28;20485;-70
2020/12/10 03:30:43;;;;;;;27.33;12.13;;;;;;;-0.51;69.88;99866.66;5031085;28;20050;-70
2020/12/10 03:33:10;;;;;;;26.00;12.93;;;;;;;-0.51;69.57;99852.91;5041606;28;20472;-70
2020/12/10 03:35:36;;;;;;;34.55;14.40;;;;;;;-0.50;69.85;99846.91;5050304;28;20075;-70
2020/12/10 03:38:03;;;;;;;25.58;10.77;;;;;;;-0.48;70.31;99851.19;5032112;28;20080;-69
2020/12/10 03:40:29;;;;;;;17.52;8.45;;;;;;;-0.47;70.03;99849.47;5031301;28;20216;-70
2020/12/10 03:42:55;;;;;;;17.63;8.80;;;;;;;-0.47;70.40;99852.06;5039335;28;20260;-70
2020/12/10 03:45:22;;;;;;;14.98;7.53;;;;;;;-0.50;70.50;99850.34;5050622;28;20140;-71
2020/12/10 03:47:48;;;;;;;23.25;12.13;;;;;;;-0.49;70.37;99839.19;5033431;28;20140;-71
2020/12/10 03:50:15;;;;;;;18.83;10.93;;;;;;;-0.48;70.53;99843.47;5031360;28;20080;-71
2020/12/10 03:52:41;;;;;;;22.38;11.63;;;;;;;-0.48;70.59;99848.63;5036982;28;20536;-69
2020/12/10 03:55:07;;;;;;;15.82;7.35;;;;;;;-0.44;70.51;99846.91;5053554;28;20103;-70
2020/12/10 03:57:33;;;;;;;15.38;8.07;;;;;;;-0.44;70.45;99852.91;5039421;28;20088;-70
2020/12/10 03:59:59;;;;;;;13.65;8.80;;;;;;;-0.43;70.43;99852.03;5034892;28;20129;-70
2020/12/10 04:02:26;;;;;;;18.35;5.75;;;;;;;-0.44;70.68;99834.88;5039086;28;20079;-70
2020/12/10 04:04:52;;;;;;;18.77;8.43;;;;;;;-0.45;70.50;99842.59;5054058;28;20136;-70
2020/12/10 04:07:19;;;;;;;18.98;9.95;;;;;;;-0.47;70.98;99834.03;5041636;28;20084;-70
2020/12/10 04:09:45;;;;;;;18.83;8.85;;;;;;;-0.47;70.82;99829.72;5035171;28;20091;-70
2020/12/10 04:12:11;;;;;;;16.52;8.07;;;;;;;-0.46;70.98;99830.59;5037071;28;20096;-69
2020/12/10 04:14:37;;;;;;;10.77;7.22;;;;;;;-0.44;70.85;99832.31;5054076;28;20048;-71
2020/12/10 04:17:04;;;;;;;24.63;11.85;;;;;;;-0.46;71.03;99828.88;5054535;28;20042;-71
2020/12/10 04:19:30;;;;;;;23.42;9.52;;;;;;;-0.43;70.92;99838.31;5053967;28;20171;-71
2020/12/10 04:21:56;;;;;;;23.80;10.30;;;;;;;-0.42;70.92;99827.16;5053231;28;20527;-70
2020/12/10 04:24:23;;;;;;;12.98;7.22;;;;;;;-0.43;71.09;99822.84;5053869;28;20081;-70
2020/12/10 04:26:49;;;;;;;23.45;11.35;;;;;;;-0.41;70.98;99819.44;5045494;28;20475;-70
2020/12/10 04:29:15;;;;;;;22.58;11.38;;;;;;;-0.40;71.33;99816.00;5034141;28;20496;-71
2020/12/10 04:31:42;;;;;;;21.13;9.68;;;;;;;-0.38;71.29;99809.13;5033968;28;20092;-71
2020/12/10 04:34:08;;;;;;;31.95;12.98;;;;;;;-0.36;71.18;99816.88;5052621;28;20056;-70
2020/12/10 04:36:35;;;;;;;23.63;11.07;;;;;;;-0.33;70.96;99811.69;5047382;28;20135;-71
2020/12/10 04:39:01;;;;;;;20.33;11.55;;;;;;;-0.28;71.20;99809.13;5033837;28;20080;-70
2020/12/10 04:41:30;;;;;;;23.98;9.95;;;;;;;-0.26;71.12;99815.97;5034190;28;20230;-70
2020/12/10 04:43:57;;;;;;;25.17;11.90;;;;;;;-0.24;71.11;99810.81;5050691;28;20045;-70
2020/12/10 04:46:25;;;;;;;24.25;11.75;;;;;;;-0.23;70.99;99812.53;5048648;28;20041;-71
2020/12/10 04:48:52;;;;;;;27.48;12.32;;;;;;;-0.25;71.24;99815.13;5033779;28;20073;-70
2020/12/10 04:51:21;;;;;;;29.60;12.05;;;;;;;-0.24;71.23;99809.09;5033260;28;20121;-71
2020/12/10 04:53:47;;;;;;;24.58;11.00;;;;;;;-0.22;71.12;99809.94;5049353;28;20132;-70
2020/12/10 04:56:15;;;;;;;21.13;10.13;;;;;;;-0.17;70.95;99812.53;5049340;28;20132;-69
2020/12/10 04:58:43;;;;;;;18.35;8.43;;;;;;;-0.13;71.04;99815.09;5033862;28;20180;-71
2020/12/10 05:01:09;;;;;;;21.85;11.73;;;;;;;-0.17;71.09;99802.25;5033059;28;20128;-70
2020/12/10 05:03:35;;;;;;;20.05;9.68;;;;;;;-0.18;71.15;99801.38;5047267;28;20053;-69
2020/12/10 05:06:09;;;;;;;23.08;10.85;;;;;;;-0.21;71.29;99797.94;5050799;28;20060;-70
2020/12/10 05:08:35;;;;;;;24.52;10.75;;;;;;;-0.22;71.40;99799.66;5034537;28;20497;-71
2020/12/10 05:11:01;;;;;;;21.70;10.73;;;;;;;-0.22;71.57;99799.66;5033779;28;20069;-71
2020/12/10 05:13:28;;;;;;;17.95;9.40;;;;;;;-0.18;71.29;99808.25;5046405;28;20080;-70
2020/12/10 05:15:55;;;;;;;25.60;11.20;;;;;;;-0.19;71.27;99812.53;5052051;28;20087;-70
2020/12/10 05:18:21;;;;;;;25.52;10.70;;;;;;;-0.20;71.26;99805.69;5033653;28;20112;-71
2020/12/10 05:20:49;;;;;;;18.35;7.82;;;;;;;-0.24;71.40;99800.50;5032558;28;20053;-70
2020/12/10 05:23:18;;;;;;;21.75;9.57;;;;;;;-0.28;71.38;99807.41;5044821;28;20080;-71
2020/12/10 05:25:51;;;;;;;26.33;12.85;;;;;;;-0.31;71.40;99795.38;5052999;28;20310;-70
2020/12/10 05:28:18;;;;;;;18.88;8.63;;;;;;;-0.28;71.63;99793.66;5033739;28;20073;-71
2020/12/10 05:30:46;;;;;;;24.10;12.82;;;;;;;-0.28;71.74;99794.50;5033441;28;20096;-71
2020/12/10 05:33:16;;;;;;;29.73;13.77;;;;;;;-0.26;71.61;99792.78;5043557;28;20530;-70
2020/12/10 05:35:42;;;;;;;18.17;8.60;;;;;;;-0.22;71.52;99791.91;5052783;28;20053;-70
2020/12/10 05:38:11;;;;;;;23.13;11.40;;;;;;;-0.22;71.62;99793.63;5033253;28;20448;-70
2020/12/10 05:40:37;;;;;;;22.88;11.43;;;;;;;-0.23;71.49;99794.50;5033121;28;20421;-70
2020/12/10 05:43:05;;;;;;;18.33;9.60;;;;;;;-0.22;71.57;99791.06;5041555;28;20060;-71
2020/12/10 05:45:31;;;;;;;25.63;12.63;;;;;;;-0.27;71.73;99792.78;5052550;28;20083;-70
2020/12/10 05:47:59;;;;;;;24.55;11.60;;;;;;;-0.29;71.51;99789.38;5034507;28;20461;-70
2020/12/10 05:50:27;;;;;;;13.30;7.47;;;;;;;-0.32;71.80;99791.09;5032908;28;20131;-70
2020/12/10 05:53:03;;;;;;;22.45;10.88;;;;;;;-0.35;72.03;99785.94;5039944;28;20451;-70
2020/12/10 05:55:29;;;;;;;23.33;9.80;;;;;;;-0.35;72.15;99785.94;5052161;28;20045;-70
2020/12/10 05:57:55;;;;;;;18.85;8.65;;;;;;;-0.35;72.00;99785.09;5034777;28;20103;-70
2020/12/10 06:00:21;;;;;;;20.38;10.00;;;;;;;-0.36;72.11;99791.97;5032744;28;20133;-71
2020/12/10 06:02:49;;;;;;;30.25;14.55;;;;;;;-0.34;72.04;99787.66;5039007;28;20037;-70
2020/12/10 06:05:17;;;;;;;28.50;13.88;;;;;;;-0.30;71.74;99791.09;5051809;28;20080;-70
2020/12/10 06:08:02;;;;;;;28.75;11.90;;;;;;;-0.31;71.92;99785.06;5036322;28;20050;-70
2020/12/10 06:10:28;;;;;;;30.00;14.38;;;;;;;-0.32;71.97;99783.38;5032432;28;20075;-70
2020/12/10 06:12:54;;;;;;;25.70;11.70;;;;;;;-0.31;72.13;99789.38;5040073;28;20069;-70
2020/12/10 06:15:25;;;;;;;36.35;15.68;;;;;;;-0.29;71.97;99781.63;5051621;28;20088;-70
2020/12/10 06:18:08;;;;;;;34.97;16.25;;;;;;;-0.24;71.66;99774.75;5034992;28;20137;-71
2020/12/10 06:20:36;;;;;;;22.98;12.15;;;;;;;-0.16;71.49;99779.03;5032212;28;20548;-70
2020/12/10 06:23:35;;;;;;;32.97;15.75;;;;;;;-0.13;71.51;99783.31;4975406;28;20094;-71
2020/12/10 06:26:38;;;;;;;26.73;11.63;;;;;;;-0.13;71.54;99786.75;5066859;28;20040;-70
2020/12/10 06:29:23;;;;;;;34.72;16.83;;;;;;;-0.17;71.73;99786.78;5067022;28;20508;-71
2020/12/10 06:32:11;;;;;;;29.88;12.35;;;;;;;-0.24;71.61;99779.91;5061172;28;20080;-70
2020/12/10 06:34:48;;;;;;;33.00;14.50;;;;;;;-0.29;71.66;99786.78;5063633;28;20153;-66
2020/12/10 06:37:25;;;;;;;19.58;9.88;;;;;;;-0.31;71.69;99779.94;5060078;28;20076;-66
2020/12/10 06:39:59;;;;;;;31.88;13.48;;;;;;;-0.32;71.89;99779.94;5054435;28;20548;-66
2020/12/10 06:42:25;;;;;;;35.92;16.08;;;;;;;-0.33;71.46;99776.50;5046537;28;20053;-66
2020/12/10 06:44:52;;;;;;;30.05;14.93;;;;;;;-0.26;71.55;99776.47;5045981;28;20123;-67
2020/12/10 06:47:19;;;;;;;29.15;13.70;;;;;;;-0.22;71.67;99770.44;5045875;28;20519;-67
2020/12/10 06:49:45;;;;;;;33.40;14.75;;;;;;;-0.22;71.37;99778.19;5046114;28;20079;-67
2020/12/10 06:52:14;;;;;;;36.97;16.70;;;;;;;-0.19;71.68;99776.47;5047159;28;20150;-67
2020/12/10 06:55:07;;;;;;;26.05;12.23;;;;;;;-0.17;71.46;99777.34;5042348;28;20045;-68
2020/12/10 06:58:04;;;;;;;30.88;11.98;;;;;;;-0.23;71.49;99777.31;5010312;28;20077;-68
2020/12/10 07:00:44;;;;;;;32.67;13.15;;;;;;;-0.28;71.59;99771.34;5010227;28;20501;-67
2020/12/10 07:03:19;;;;;;;48.75;18.98;;;;;;;-0.27;71.51;99764.47;5010736;28;20061;-67
2020/12/10 07:05:46;;;;;;;35.97;15.82;;;;;;;-0.24;71.50;99772.19;5012648;28;20100;-67
2020/12/10 07:08:14;;;;;;;32.17;13.23;;;;;;;-0.27;71.83;99773.03;5012181;28;20140;-66
2020/12/10 07:10:44;;;;;;;42.10;19.08;;;;;;;-0.27;71.83;99770.47;5012044;28;20501;-67
2020/12/10 07:13:13;;;;;;;56.92;21.70;;;;;;;-0.28;72.08;99768.75;5012063;28;20053;-67
2020/12/10 07:15:40;;;;;;;54.95;20.73;;;;;;;-0.22;71.81;99767.88;5012364;28;20096;-67
2020/12/10 07:18:06;;;;;;;47.67;22.70;;;;;;;-0.20;71.80;99764.47;5012370;28;20046;-67
2020/12/10 07:20:33;;;;;;;50.28;21.50;;;;;;;-0.15;71.73;99767.03;5011920;28;20053;-67
2020/12/10 07:23:01;;;;;;;48.90;20.20;;;;;;;-0.14;71.63;99763.59;5012409;28;20038;-66
2020/12/10 07:25:28;;;;;;;49.72;20.55;;;;;;;-0.14;71.71;99766.16;5012034;28;20046;-67
2020/12/10 07:27:55;;;;;;;56.17;20.58;;;;;;;-0.15;71.94;99765.31;5012202;28;20223;-67
2020/12/10 07:30:25;;;;;;;46.60;21.00;;;;;;;-0.12;71.63;99769.59;5011412;28;20351;-67
2020/12/10 07:32:55;;;;;;;54.83;22.95;;;;;;;-0.10;71.74;99757.56;5011977;28;20046;-67
2020/12/10 07:35:35;;;;;;;43.13;17.98;;;;;;;-0.05;71.56;99764.41;5012717;28;20415;-68
2020/12/10 07:38:09;;;;;;;61.88;22.58;;;;;;;-0.05;71.49;99761.81;5013125;28;20061;-68
2020/12/10 07:40:37;;;;;;;55.60;23.73;;;;;;;-0.03;71.42;99756.66;5012627;28;20111;-67
2020/12/10 07:43:05;;;;;;;58.20;24.60;;;;;;;-0.02;71.41;99748.06;5011888;28;20124;-66
2020/12/10 07:45:32;;;;;;;57.45;23.23;;;;;;;-0.04;71.23;99749.78;5011713;28;20139;-67
2020/12/10 07:48:00;;;;;;;48.78;21.55;;;;;;;-0.07;71.37;99747.22;5011515;28;20054;-67
2020/12/10 07:50:27;;;;;;;48.50;19.67;;;;;;;-0.06;71.22;99744.66;5014132;28;20042;-67
2020/12/10 07:52:54;;;;;;;53.83;22.70;;;;;;;-0.07;71.53;99739.50;5031158;28;20099;-68
2020/12/10 07:55:25;;;;;;;52.20;23.33;;;;;;;-0.05;71.30;99740.34;5028289;28;20049;-68
2020/12/10 07:58:01;;;;;;;53.13;21.58;;;;;;;-0.06;71.33;99733.47;5023580;28;20134;-68
2020/12/10 08:00:34;;;;;;;45.40;16.48;;;;;;;-0.08;71.37;99740.38;5020767;28;20045;-70
2020/12/10 08:03:13;;;;;;;51.92;22.13;;;;;;;-0.10;71.30;99753.25;5025139;28;20045;-72
2020/12/10 08:05:41;;;;;;;44.00;16.80;;;;;;;-0.11;71.24;99740.38;5014070;28;20054;-72
2020/12/10 08:08:09;;;;;;;60.65;25.95;;;;;;;-0.15;71.11;99734.38;5020511;28;20057;-69
2020/12/10 08:10:36;;;;;;;35.45;14.05;;;;;;;-0.21;71.28;99736.97;5019473;28;20511;-69
2020/12/10 08:13:13;;;;;;;43.67;18.25;;;;;;;-0.27;71.19;99741.28;5014909;28;20077;-70
2020/12/10 08:15:42;;;;;;;40.35;15.77;;;;;;;-0.26;71.32;99745.56;5026131;28;20057;-69
2020/12/10 08:18:10;;;;;;;33.88;15.05;;;;;;;-0.28;71.30;99749.88;5021691;28;20046;-72
2020/12/10 08:20:40;;;;;;;28.75;14.85;;;;;;;-0.28;71.27;99744.72;5019190;28;20052;-72
2020/12/10 08:23:07;;;;;;;46.10;19.40;;;;;;;-0.31;71.39;99749.03;5029586;28;20473;-69
2020/12/10 08:25:33;;;;;;;38.78;18.88;;;;;;;-0.33;71.40;99748.16;5027726;28;20464;-71
2020/12/10 08:27:59;;;;;;;43.80;20.35;;;;;;;-0.37;71.40;99741.31;5011900;28;20050;-70
2020/12/10 08:30:26;;;;;;;50.55;20.90;;;;;;;-0.33;71.23;99748.16;5019598;28;20476;-71
2020/12/10 08:32:54;;;;;;;32.50;14.98;;;;;;;-0.35;71.29;99746.47;5030330;28;20086;-70
2020/12/10 08:35:21;;;;;;;47.05;22.60;;;;;;;-0.39;71.39;99749.91;5029404;28;20501;-69
2020/12/10 08:37:48;;;;;;;56.75;26.10;;;;;;;-0.33;71.22;99744.75;5030215;28;20068;-70
2020/12/10 08:40:25;;;;;;;42.10;16.85;;;;;;;-0.31;71.34;99740.44;5030354;28;20111;-71
2020/12/10 08:42:54;;;;;;;57.60;22.80;;;;;;;-0.32;71.46;99739.59;5033899;28;20303;-70
2020/12/10 08:45:32;;;;;;;43.80;20.88;;;;;;;-0.33;71.18;99740.44;5033383;28;20501;-71
2020/12/10 08:48:02;;;;;;;50.58;20.45;;;;;;;-0.30;71.17;99744.72;5025046;28;20497;-71
2020/12/10 08:50:30;;;;;;;64.97;25.38;;;;;;;-0.28;71.18;99737.00;5028405;28;20115;-70
2020/12/10 08:53:05;;;;;;;41.30;19.00;;;;;;;-0.27;71.13;99738.69;5018154;28;20098;-70
2020/12/10 08:55:42;;;;;;;44.60;19.42;;;;;;;-0.32;71.21;99731.00;5033920;28;20107;-70
2020/12/10 08:58:16;;;;;;;49.72;20.05;;;;;;;-0.36;71.12;99739.59;5013921;28;20050;-72
2020/12/10 09:00:43;;;;;;;38.65;18.80;;;;;;;-0.41;71.17;99737.03;5022671;28;20053;-71
2020/12/10 09:03:12;;;;;;;47.55;20.27;;;;;;;-0.45;71.69;99737.88;5023587;28;20106;-70
2020/12/10 09:05:38;;;;;;;38.17;18.33;;;;;;;-0.45;71.39;99730.16;5024090;28;20091;-70
2020/12/10 09:08:05;;;;;;;44.80;18.15;;;;;;;-0.46;71.41;99732.75;5033133;28;20157;-71
2020/12/10 09:10:31;;;;;;;49.65;21.05;;;;;;;-0.45;71.43;99729.31;5032990;28;20068;-69
2020/12/10 09:13:01;;;;;;;45.63;20.27;;;;;;;-0.43;71.45;99730.16;5032868;28;20042;-71
2020/12/10 09:15:28;;;;;;;52.97;21.33;;;;;;;-0.39;71.14;99719.88;5030390;28;20046;-70
2020/12/10 09:17:55;;;;;;;42.58;20.70;;;;;;;-0.34;70.96;99706.97;5014209;28;20049;-71
2020/12/10 09:20:23;;;;;;;41.97;20.95;;;;;;;-0.32;71.23;99698.38;5025913;28;20045;-71
2020/12/10 09:22:49;;;;;;;54.17;20.25;;;;;;;-0.29;71.11;99699.22;5033648;28;20108;-74
2020/12/10 09:25:16;;;;;;;45.33;15.93;;;;;;;-0.26;70.87;99694.06;5033197;28;20045;-74
2020/12/10 09:27:43;;;;;;;48.55;19.63;;;;;;;-0.24;70.70;99692.31;5032842;28;20053;-74
2020/12/10 09:30:12;;;;;;;58.60;21.75;;;;;;;-0.18;70.92;99695.75;5033146;28;20050;-73
2020/12/10 09:32:40;;;;;;;43.80;19.40;;;;;;;-0.16;70.62;99700.91;5036642;28;20115;-75
2020/12/10 09:35:09;;;;;;;24.95;13.23;;;;;;;-0.19;70.69;99704.34;5032757;28;20052;-76
2020/12/10 09:37:41;;;;;;;35.50;15.57;;;;;;;-0.21;70.78;99700.03;5033979;28;20123;-80
2020/12/10 09:40:09;;;;;;;37.72;16.75;;;;;;;-0.21;70.76;99702.63;5033477;28;20095;-70
2020/12/10 09:42:37;;;;;;;24.50;10.68;;;;;;;-0.23;70.99;99700.03;5030968;28;20057;-70
2020/12/10 09:45:06;;;;;;;42.03;16.75;;;;;;;-0.23;70.81;99694.03;5030400;28;20049;-72
2020/12/10 09:47:32;;;;;;;42.85;17.58;;;;;;;-0.21;70.96;99682.00;5022592;28;20081;-72
2020/12/10 09:49:59;;;;;;;35.67;17.67;;;;;;;-0.16;70.72;99677.72;5022924;28;20489;-72
2020/12/10 09:52:26;;;;;;;34.53;16.17;;;;;;;-0.10;70.40;99675.09;5031471;28;20448;-71
2020/12/10 09:55:03;;;;;;;27.92;13.57;;;;;;;-0.08;70.71;99668.22;5031283;28;20056;-71
2020/12/10 09:57:30;;;;;;;31.15;13.98;;;;;;;-0.07;70.61;99669.94;5031708;28;20041;-70
2020/12/10 09:59:57;;;;;;;24.75;12.57;;;;;;;-0.07;70.43;99655.31;5030175;28;20092;-71
2020/12/10 10:02:23;;;;;;;32.70;14.98;;;;;;;-0.07;70.35;99639.88;5031140;28;20088;-71
2020/12/10 10:04:49;;;;;;;23.00;10.43;;;;;;;-0.05;70.03;99648.44;5028507;28;20169;-71
2020/12/10 10:07:16;;;;;;;33.42;15.32;;;;;;;-0.06;70.23;99635.56;5030071;28;20099;-70
2020/12/10 10:09:43;;;;;;;29.33;13.95;;;;;;;-0.05;70.17;99632.13;5024274;28;20489;-70
2020/12/10 10:12:11;;;;;;;31.08;13.45;;;;;;;-0.02;70.10;99621.81;5030283;28;20076;-71
2020/12/10 10:14:37;;;;;;;29.40;13.40;;;;;;;0.01;70.29;99615.81;5026020;28;20137;-70
2020/12/10 10:17:07;;;;;;;34.80;16.27;;;;;;;0.02;70.25;99615.78;5024744;28;20053;-70
2020/12/10 10:19:34;;;;;;;30.20;14.13;;;;;;;0.08;70.10;99623.47;5015024;28;20103;-65
2020/12/10 10:22:00;;;;;;;33.83;14.90;;;;;;;0.14;70.18;99623.44;5027898;28;20172;-65
2020/12/10 10:24:26;;;;;;;31.95;16.00;;;;;;;0.20;70.01;99617.38;5024235;28;20050;-65
2020/12/10 10:26:54;;;;;;;29.08;14.63;;;;;;;0.26;70.03;99614.78;5030745;28;20049;-64
2020/12/10 10:29:21;;;;;;;27.33;14.60;;;;;;;0.30;69.96;99609.56;5031054;28;20107;-65
2020/12/10 10:31:49;;;;;;;27.77;13.70;;;;;;;0.33;69.74;99610.41;5019811;28;20197;-65
2020/12/10 10:34:15;;;;;;;34.35;16.58;;;;;;;0.35;69.89;99604.38;5017769;28;20138;-65
2020/12/10 10:36:41;;;;;;;26.30;13.00;;;;;;;0.32;70.00;99599.25;5028467;28;20099;-65
2020/12/10 10:39:08;;;;;;;35.20;15.98;;;;;;;0.33;69.72;99602.69;5029593;28;20092;-65
2020/12/10 10:41:40;;;;;;;34.20;14.73;;;;;;;0.35;69.72;99598.38;5029882;28;20451;-65
2020/12/10 10:44:06;;;;;;;41.38;17.67;;;;;;;0.39;69.61;99597.47;5031280;28;20103;-66
2020/12/10 10:46:34;;;;;;;28.90;15.23;;;;;;;0.43;69.64;99601.75;5030439;28;20398;-65
2020/12/10 10:49:00;;;;;;;30.35;14.93;;;;;;;0.44;69.74;99588.00;5031406;28;20099;-65
2020/12/10 10:51:26;;;;;;;21.92;10.57;;;;;;;0.43;69.46;99589.72;5030698;28;20565;-64
2020/12/10 10:53:52;;;;;;;28.80;13.02;;;;;;;0.43;69.55;99586.28;5031167;28;20046;-64
2020/12/10 10:56:21;;;;;;;33.20;12.80;;;;;;;0.44;69.58;99586.28;5020414;28;20073;-64
2020/12/10 10:58:47;;;;;;;30.77;15.32;;;;;;;0.44;69.30;99588.00;5024452;28;20073;-65
2020/12/10 11:01:13;;;;;;;33.75;15.90;;;;;;;0.40;69.41;99584.56;5031000;28;20041;-64
2020/12/10 11:03:40;;;;;;;36.30;16.00;;;;;;;0.38;69.47;99586.31;5023227;28;20081;-65
2020/12/10 11:06:06;;;;;;;28.20;14.60;;;;;;;0.35;69.43;99585.47;5026884;28;20128;-65
2020/12/10 11:08:33;;;;;;;37.60;18.83;;;;;;;0.36;69.51;99577.72;5011301;28;20065;-65
2020/12/10 11:10:59;;;;;;;35.47;20.13;;;;;;;0.42;69.56;99587.16;5022100;28;20103;-65
2020/12/10 11:13:25;;;;;;;25.77;13.45;;;;;;;0.48;69.36;99581.94;5022294;28;20104;-65
2020/12/10 11:15:51;;;;;;;35.25;18.17;;;;;;;0.52;69.32;99578.47;5020456;28;20076;-64
2020/12/10 11:18:17;;;;;;;30.15;15.48;;;;;;;0.57;69.19;99569.81;5030082;28;20041;-64
2020/12/10 11:20:44;;;;;;;25.75;12.02;;;;;;;0.61;69.17;99562.91;5028606;28;20081;-64
2020/12/10 11:23:12;;;;;;;26.50;14.98;;;;;;;0.65;68.99;99572.34;5029743;28;20046;-64